Welcome to Northern Hawkes Bay. New Zealand.
PWS Header
      nz Flag



Hit Counter


W3C Valid W3C Valid logo


    Wairoa

Select any of the Stations below to visit their websites.










Historic Data from Weather Underground
Select the location of interest below. Wairoa is the default. Please have patience, this Data is slow to load in.
Northern Hawkes Bay Historical Data
Daily Summary for July 14, 2017 Units:  English    Metric   Both
« Previous Day
Next Day »
Daily Weekly Monthly Yearly Custom
  High: Low: Average:
Temperature: 54.9 °F 47.3 °F 50.4 °F
Dew Point: 47.7 °F 42.1 °F 45.3 °F
Humidity: 98% 65% 84%
Wind Speed: 23.5mph 2.2mph 12.1mph
Wind Gust: 34.2mph - -
Wind- - SW
Pressure: 30.2 in 29.8 in -
Precipitation: 0.57 in    
Historical Graphs
 
 
Tabular Data for July 14, 2017
Time Temperature Dew Point Pressure Wind Wind Speed Wind Gust Humidity Rainfall Rate (Hourly) solar
00:02 53.1 °F 44.2 °F 29.8 in South 20.6 mph 32 mph 72% 0.05 in 4 W/m2
00:08 53.1 °F 44.6 °F 29.8 in South 18.3 mph 32 mph 73% 0.04 in 9 W/m2
00:13 53.1 °F 45 °F 29.8 in South 19 mph 29.8 mph 74% 0.02 in 6 W/m2
00:18 52.9 °F 44.8 °F 29.8 in South 16.8 mph 29.8 mph 74% 0.02 in 12 W/m2
00:23 52.9 °F 44.8 °F 29.8 in SSE 18.3 mph 28.9 mph 74% 0.01 in 11 W/m2
00:27 52.9 °F 44.4 °F 29.8 in South 23.5 mph 32 mph 73% 0 in 10 W/m2
00:32 52.9 °F 44.8 °F 29.8 in SSW 20.6 mph 32 mph 74% 0 in 9 W/m2
00:38 52.7 °F 45.3 °F 29.8 in SSW 18.3 mph 32 mph 76% 0 in 10 W/m2
00:42 52.5 °F 45.5 °F 29.9 in South 15.9 mph 30.4 mph 77% 0 in 4 W/m2
00:48 52.3 °F 45.3 °F 29.9 in South 15.2 mph 30.4 mph 77% 0 in 1 W/m2
00:53 52.5 °F 45.1 °F 29.9 in South 22.1 mph 28.2 mph 76% 0 in 0 W/m2
00:57 52.9 °F 45.1 °F 29.9 in South 15.9 mph 28.9 mph 75% 0 in 0 W/m2
01:02 52.9 °F 45.1 °F 29.9 in South 19.7 mph 29.8 mph 75% 0 in 0 W/m2
01:08 52.9 °F 45.9 °F 29.9 in South 14.5 mph 29.8 mph 77% 0 in 0 W/m2
01:12 53.1 °F 44.6 °F 29.9 in South 13 mph 32.7 mph 73% 0.01 in 0 W/m2
01:17 53.1 °F 43.9 °F 29.9 in South 15.2 mph 32.7 mph 71% 0.01 in 0 W/m2
01:21 53.1 °F 44.2 °F 29.9 in South 19.7 mph 32 mph 72% 0.01 in 0 W/m2
01:26 53.1 °F 45 °F 29.9 in South 19.7 mph 27.3 mph 74% 0.01 in 0 W/m2
01:31 53.1 °F 45 °F 29.9 in SSW 15.2 mph 28.2 mph 74% 0.01 in 0 W/m2
01:36 52.9 °F 44.8 °F 29.9 in South 21.3 mph 29.8 mph 74% 0.01 in 0 W/m2
01:41 53.1 °F 44.6 °F 29.9 in South 13.6 mph 31.1 mph 73% 0.01 in 0 W/m2
01:46 52.9 °F 44.8 °F 29.9 in South 9.8 mph 31.1 mph 74% 0.01 in 0 W/m2
01:52 52.5 °F 45.5 °F 29.9 in South 16.8 mph 34.2 mph 77% 0.01 in 0 W/m2
01:56 51.6 °F 46.6 °F 29.9 in South 18.3 mph 34.2 mph 83% 0.01 in 0 W/m2
02:01 52 °F 46.8 °F 29.9 in South 15.2 mph 23.5 mph 82% 0.01 in 0 W/m2
02:06 52.3 °F 45 °F 29.9 in South 15.2 mph 27.3 mph 76% 0.01 in 0 W/m2
02:11 52.3 °F 45 °F 29.9 in South 14.5 mph 27.3 mph 76% 0 in 0 W/m2
02:16 52.5 °F 46.9 °F 29.9 in South 15.2 mph 25.9 mph 81% 0 in 0 W/m2
02:21 52 °F 46.8 °F 29.9 in South 13.6 mph 28.2 mph 82% 0 in 0 W/m2
02:27 51.6 °F 47.3 °F 29.9 in South 14.5 mph 28.2 mph 85% 0 in 0 W/m2
02:32 51.6 °F 47.7 °F 29.9 in SSW 13 mph 25.9 mph 86% 0 in 0 W/m2
02:36 52 °F 46.8 °F 29.9 in SSW 22.1 mph 29.8 mph 82% 0 in 0 W/m2
02:41 50.7 °F 46.9 °F 29.9 in South 20.6 mph 30.4 mph 87% 0.01 in 0 W/m2
02:47 50 °F 46.9 °F 29.9 in South 13.6 mph 32.7 mph 89% 0.01 in 0 W/m2
02:51 50 °F 47.1 °F 29.9 in South 16.8 mph 32.7 mph 90% 0.01 in 0 W/m2
02:56 50.5 °F 47.5 °F 29.9 in South 19.7 mph 32.7 mph 89% 0.02 in 0 W/m2
03:01 50.4 °F 46.9 °F 29.9 in SSW 13 mph 32.7 mph 88% 0.02 in 0 W/m2
03:06 50.5 °F 47.5 °F 29.9 in SSW 16.8 mph 32.7 mph 89% 0.02 in 0 W/m2
03:12 50.2 °F 47.1 °F 29.9 in South 15.9 mph 25.9 mph 89% 0.02 in 0 W/m2
03:16 50.2 °F 47.1 °F 29.9 in South 12.1 mph 25.9 mph 89% 0.02 in 0 W/m2
03:21 50.5 °F 47.5 °F 29.9 in South 15.2 mph 30.4 mph 89% 0.02 in 0 W/m2
03:26 50.9 °F 47.1 °F 29.9 in South 13.6 mph 30.4 mph 87% 0.02 in 0 W/m2
03:31 51.1 °F 47.5 °F 29.9 in South 15.9 mph 22.8 mph 87% 0.02 in 0 W/m2
03:36 51.3 °F 47.1 °F 29.9 in South 15.9 mph 25.9 mph 86% 0.02 in 0 W/m2
03:41 51.6 °F 46.9 °F 29.9 in SSW 18.3 mph 25.9 mph 84% 0.01 in 0 W/m2
03:46 50.9 °F 46.2 °F 29.9 in SSW 13 mph 25.1 mph 84% 0.01 in 0 W/m2
03:52 50.9 °F 46.6 °F 29.9 in SSW 13 mph 24.4 mph 85% 0.01 in 0 W/m2
03:56 51.1 °F 46.8 °F 29.9 in SSW 15.9 mph 26.6 mph 85% 0 in 0 W/m2
04:01 51.3 °F 46.6 °F 29.9 in South 15.9 mph 26.6 mph 84% 0 in 0 W/m2
04:06 50.9 °F 46.9 °F 29.9 in South 13 mph 25.9 mph 86% 0.01 in 0 W/m2
04:11 51.1 °F 47.5 °F 29.9 in South 11.4 mph 22.8 mph 87% 0.01 in 0 W/m2
04:16 51.3 °F 47.1 °F 29.9 in South 16.8 mph 26.6 mph 86% 0.01 in 0 W/m2
04:21 51.4 °F 46.8 °F 29.9 in South 15.2 mph 26.6 mph 84% 0.01 in 0 W/m2
04:26 51.6 °F 46.6 °F 29.9 in South 11.4 mph 25.1 mph 83% 0.01 in 0 W/m2
04:31 51.3 °F 46.6 °F 30 in SSW 13 mph 22.8 mph 84% 0.01 in 0 W/m2
04:36 51.3 °F 46.9 °F 30 in SSW 17.4 mph 22.1 mph 85% 0.01 in 0 W/m2
04:41 52 °F 46.8 °F 30 in SSW 16.8 mph 24.4 mph 82% 0.01 in 0 W/m2
04:46 52 °F 45.7 °F 30 in SSW 15.9 mph 26.6 mph 79% 0.01 in 0 W/m2
04:51 52.2 °F 44.4 °F 30 in South 14.5 mph 26.6 mph 75% 0.01 in 0 W/m2
04:56 52.2 °F 45.1 °F 30 in South 9.2 mph 24.4 mph 77% 0.01 in 0 W/m2
05:01 51.8 °F 45.9 °F 30 in South 12.1 mph 24.4 mph 80% 0.01 in 0 W/m2
05:06 51.6 °F 46.2 °F 30 in South 12.1 mph 19 mph 82% 0 in 0 W/m2
05:11 52 °F 46 °F 30 in South 13 mph 22.1 mph 80% 0 in 0 W/m2
05:31 52.2 °F 45.1 °F 30 in SSW 13.6 mph 20.6 mph 77% 0 in 0 W/m2
05:36 52.3 °F 45.7 °F 30 in SSW 11.4 mph 20.6 mph 78% 0 in 0 W/m2
05:41 52.5 °F 46.2 °F 30 in South 15.9 mph 28.2 mph 79% 0 in 0 W/m2
05:46 52.5 °F 45.9 °F 30 in SSW 14.5 mph 28.2 mph 78% 0 in 0 W/m2
05:53 52.3 °F 46.9 °F 30 in South 9.8 mph 25 mph 82% 0 in 0 W/m2
05:58 52 °F 46.9 °F 30 in SSW 10.7 mph 21.3 mph 83% 0 in 0 W/m2
06:04 51.6 °F 46.6 °F 30 in South 15.9 mph 22.1 mph 83% 0 in 0 W/m2
06:08 51.4 °F 46.6 °F 30 in South 14.5 mph 22.1 mph 83% 0 in 0 W/m2
06:13 51.3 °F 46.9 °F 30 in South 13.6 mph 22.1 mph 85% 0 in 0 W/m2
06:19 51.6 °F 46.9 °F 30 in SSW 15.2 mph 27.3 mph 84% 0 in 0 W/m2
06:24 51.4 °F 47.1 °F 30 in SSW 11.4 mph 27.3 mph 85% 0 in 0 W/m2
06:29 51.3 °F 47.1 °F 30 in SSW 11.4 mph 25.9 mph 86% 0 in 0 W/m2
06:34 51.3 °F 47.1 °F 30 in SSW 13.6 mph 19.7 mph 86% 0 in 0 W/m2
06:39 50.9 °F 46.9 °F 30 in SW 13 mph 22.1 mph 86% 0 in 0 W/m2
06:43 50.9 °F 47.1 °F 30 in SW 9.8 mph 22.1 mph 87% 0 in 0 W/m2
06:49 51.4 °F 46.8 °F 30 in South 9.8 mph 21.3 mph 84% 0 in 0 W/m2
06:53 51.4 °F 46.8 °F 30 in SSW 9.8 mph 20.6 mph 84% 0 in 0 W/m2
06:59 51.1 °F 46.4 °F 30 in SSW 11.4 mph 18.3 mph 84% 0 in 0 W/m2
07:04 51.3 °F 46.6 °F 30 in South 13 mph 24.4 mph 84% 0 in 0 W/m2
07:09 51.6 °F 46.9 °F 30 in SSW 9.8 mph 24.4 mph 84% 0 in 0 W/m2
07:14 51.3 °F 46.9 °F 30 in SSW 8.3 mph 19 mph 85% 0 in 0 W/m2
07:19 51.1 °F 46.8 °F 30 in SSW 13 mph 18.3 mph 85% 0 in 0 W/m2
07:24 51.1 °F 46.9 °F 30 in SSW 13 mph 24.4 mph 86% 0 in 0 W/m2
07:29 50.9 °F 47.1 °F 30 in SSW 9.2 mph 24.4 mph 87% 0 in 0 W/m2
07:33 50.4 °F 47.1 °F 30 in SW 12.1 mph 25.1 mph 89% 0 in 0 W/m2
07:39 50.2 °F 47.5 °F 30 in SW 16.8 mph 26.6 mph 90% 0 in 0 W/m2
07:44 49.8 °F 47.3 °F 30 in South 9.2 mph 26.6 mph 91% 0.01 in 0 W/m2
07:49 50.4 °F 47.5 °F 30 in SSW 9.2 mph 22.8 mph 90% 0.01 in 0 W/m2
07:54 50.5 °F 47.7 °F 30 in SSW 9.8 mph 20.6 mph 90% 0.01 in 0 W/m2
07:59 50.4 °F 47.5 °F 30 in SSW 6.9 mph 18.3 mph 90% 0.01 in 0 W/m2
08:04 49.6 °F 47.5 °F 30 in SSW 14.5 mph 22.8 mph 92% 0.02 in 0 W/m2
08:09 49.3 °F 47.7 °F 30 in SW 13.6 mph 22.8 mph 94% 0.02 in 0 W/m2
08:14 48.9 °F 47.3 °F 30 in WSW 16.8 mph 23.5 mph 94% 0.05 in 0 W/m2
08:17 48.9 °F 47.7 °F 30 in WSW 19.7 mph 23.5 mph 95% 0.06 in 0 W/m2
08:22 48.9 °F 47.7 °F 30 in SW 13.6 mph 23.5 mph 95% 0.07 in 0 W/m2
08:27 48.6 °F 47.1 °F 30 in SW 12.1 mph 26.6 mph 95% 0.08 in 0 W/m2
08:32 48.6 °F 47.5 °F 30 in SW 16.8 mph 26.6 mph 96% 0.11 in 0 W/m2
08:37 48.4 °F 47.3 °F 30 in SW 19.7 mph 30.4 mph 96% 0.13 in 0 W/m2
08:42 48 °F 47.1 °F 30 in WSW 15.2 mph 30.4 mph 97% 0.13 in 0 W/m2
08:47 47.7 °F 46.9 °F 30 in SW 19.7 mph 30.4 mph 97% 0.14 in 0 W/m2
08:52 47.8 °F 47.3 °F 30 in SW 15.9 mph 25.9 mph 98% 0.14 in 0 W/m2
08:57 48 °F 47.5 °F 30 in WSW 15.2 mph 26.6 mph 98% 0.15 in 0 W/m2
09:02 47.7 °F 46.9 °F 30 in WSW 20.6 mph 28.9 mph 97% 0.15 in 0 W/m2
09:07 47.7 °F 46.9 °F 30 in WSW 19.7 mph 28.9 mph 97% 0.18 in 0 W/m2
09:12 47.7 °F 46.9 °F 30 in SW 9.8 mph 26.6 mph 97% 0.17 in 0 W/m2
09:17 47.7 °F 46.9 °F 30 in SW 16.8 mph 26.6 mph 97% 0.15 in 0 W/m2
09:22 47.8 °F 46.9 °F 30 in SW 16.8 mph 29.8 mph 97% 0.15 in 0 W/m2
09:27 47.7 °F 46.6 °F 30 in SW 15.2 mph 29.8 mph 96% 0.14 in 0 W/m2
09:32 48 °F 46.9 °F 30.1 in SW 13.6 mph 27.3 mph 96% 0.13 in 0 W/m2
09:37 47.8 °F 46.8 °F 30.1 in WSW 15.2 mph 27.3 mph 96% 0.11 in 0 W/m2
09:42 47.7 °F 46.6 °F 30.1 in WSW 13 mph 25.1 mph 96% 0.12 in 0 W/m2
09:47 47.5 °F 46.4 °F 30.1 in WSW 15.2 mph 26.6 mph 96% 0.12 in 0 W/m2
09:52 48 °F 46.9 °F 30.1 in SW 15.9 mph 28.9 mph 96% 0.12 in 0 W/m2
09:57 48 °F 46.9 °F 30.1 in SW 14.5 mph 28.9 mph 96% 0.12 in 0 W/m2
10:02 47.8 °F 46.8 °F 30.1 in SW 17.4 mph 26.6 mph 96% 0.12 in 0 W/m2
10:07 47.5 °F 46.4 °F 30.1 in SW 13.6 mph 26.6 mph 96% 0.11 in 0 W/m2
10:12 47.5 °F 46.4 °F 30.1 in SW 23.5 mph 28.2 mph 96% 0.12 in 0 W/m2
10:17 47.7 °F 46.9 °F 30.1 in SW 20.6 mph 28.2 mph 97% 0.13 in 0 W/m2
10:22 47.5 °F 46.8 °F 30.1 in SW 15.9 mph 28.2 mph 97% 0.14 in 0 W/m2
10:27 47.7 °F 46.9 °F 30.1 in SW 18.3 mph 28.2 mph 97% 0.15 in 0 W/m2
10:32 47.8 °F 46.9 °F 30.1 in SW 18.3 mph 28.2 mph 97% 0.15 in 0 W/m2
10:37 47.7 °F 46.9 °F 30.1 in SW 11.4 mph 26.6 mph 97% 0.17 in 0 W/m2
10:42 47.7 °F 46.6 °F 30.1 in SSW 13.6 mph 26.6 mph 96% 0.15 in 0 W/m2
10:47 47.8 °F 46.8 °F 30.1 in SW 15.2 mph 25.1 mph 96% 0.15 in 0 W/m2
10:52 47.8 °F 46.8 °F 30.1 in SSW 9.8 mph 27.3 mph 96% 0.17 in 0 W/m2
10:57 47.8 °F 46.8 °F 30.1 in SW 11.4 mph 27.3 mph 96% 0.17 in 0 W/m2
11:02 47.7 °F 46.6 °F 30.1 in SSW 13.6 mph 24.4 mph 96% 0.17 in 0 W/m2
11:06 47.7 °F 46.2 °F 30.1 in SSW 17.4 mph 23.5 mph 95% 0.17 in 0 W/m2
11:12 47.5 °F 46.4 °F 30.1 in SW 13 mph 24.4 mph 96% 0.15 in 0 W/m2
11:17 47.5 °F 46.4 °F 30.1 in SW 10.7 mph 24.4 mph 96% 0.15 in 0 W/m2
11:22 47.5 °F 46.4 °F 30.1 in SSW 14.5 mph 22.1 mph 96% 0.17 in 0 W/m2
11:27 47.7 °F 46.6 °F 30.1 in SSW 14.5 mph 22.1 mph 96% 0.15 in 0 W/m2
11:32 47.8 °F 46.8 °F 30.1 in SSW 19.7 mph 29.8 mph 96% 0.15 in 0 W/m2
11:37 47.8 °F 46.6 °F 30.1 in SW 11.4 mph 29.8 mph 95% 0.14 in 0 W/m2
11:42 47.7 °F 46.2 °F 30.1 in SW 19 mph 29.8 mph 95% 0.15 in 0 W/m2
11:46 47.7 °F 46.2 °F 30.1 in SW 13 mph 25.1 mph 95% 0.14 in 0 W/m2
11:57 48.2 °F 46.2 °F 30.1 in SW 13 mph 21.3 mph 93% 0.12 in 0 W/m2
12:02 48.2 °F 46.2 °F 30.1 in SW 9.2 mph 25.1 mph 93% 0.11 in 0 W/m2
12:07 48.4 °F 46.6 °F 30.1 in SW 17.4 mph 25.1 mph 93% 0.09 in 0 W/m2
12:12 48.4 °F 46.2 °F 30.1 in SW 10.7 mph 23.5 mph 92% 0.08 in 0 W/m2
12:16 48.4 °F 46.2 °F 30.1 in SW 9.8 mph 22.1 mph 92% 0.07 in 0 W/m2
12:21 48.4 °F 46.2 °F 30.1 in SW 15.2 mph 19.7 mph 92% 0.04 in 0 W/m2
12:27 48.4 °F 46.2 °F 30.1 in SW 13 mph 19.7 mph 92% 0.04 in 0 W/m2
12:32 48.7 °F 46.2 °F 30.1 in SW 14.5 mph 19.7 mph 91% 0.04 in 0 W/m2
12:37 48.7 °F 45.9 °F 30.1 in SW 14.5 mph 19.7 mph 90% 0.04 in 0 W/m2
12:42 48.7 °F 45.9 °F 30.1 in WSW 6.9 mph 19.7 mph 90% 0.01 in 0 W/m2
12:46 48.6 °F 45.9 °F 30.1 in SW 10.7 mph 17.4 mph 90% 0.01 in 0 W/m2
12:52 48.4 °F 45.3 °F 30.1 in SW 13 mph 21.3 mph 89% 0.01 in 0 W/m2
12:56 48.4 °F 45.3 °F 30.1 in SW 9.8 mph 21.3 mph 89% 0.01 in 0 W/m2
13:01 48.2 °F 44.8 °F 30.1 in SW 10.7 mph 21.3 mph 88% 0.01 in 0 W/m2
13:07 48.4 °F 45 °F 30.1 in WSW 7.6 mph 19.7 mph 88% 0.01 in 0 W/m2
13:11 48.2 °F 44.8 °F 30.1 in WSW 8.3 mph 22.1 mph 88% 0.01 in 0 W/m2
13:17 48.2 °F 45.1 °F 30.1 in WSW 11.4 mph 22.1 mph 89% 0.01 in 0 W/m2
13:21 48 °F 45.1 °F 30.1 in WSW 8.3 mph 21.3 mph 90% 0.01 in 0 W/m2
13:26 47.7 °F 45 °F 30.1 in WSW 11.4 mph 16.8 mph 90% 0.01 in 0 W/m2
13:31 47.8 °F 45.3 °F 30.1 in WSW 10.7 mph 18.3 mph 91% 0 in 0 W/m2
13:37 47.8 °F 45.3 °F 30.1 in West 10.7 mph 18.3 mph 91% 0 in 0 W/m2
13:42 47.8 °F 45.3 °F 30.1 in West 11.4 mph 19 mph 91% 0 in 0 W/m2
13:47 47.8 °F 45.3 °F 30.1 in West 6.9 mph 19.7 mph 91% 0 in 0 W/m2
13:51 47.7 °F 45.1 °F 30.1 in West 10.7 mph 21.3 mph 91% 0 in 0 W/m2
13:56 47.5 °F 45 °F 30.1 in WSW 8.3 mph 21.3 mph 91% 0 in 0 W/m2
14:01 47.5 °F 45 °F 30.1 in WSW 13.6 mph 18.3 mph 91% 0 in 0 W/m2
14:06 47.5 °F 45 °F 30.1 in WSW 13.6 mph 17.4 mph 91% 0 in 0 W/m2
14:11 47.7 °F 45.1 °F 30.1 in WSW 11.4 mph 19 mph 91% 0 in 0 W/m2
14:17 47.7 °F 45 °F 30.1 in WSW 9.8 mph 19 mph 90% 0 in 0 W/m2
14:22 47.7 °F 45 °F 30.1 in WSW 8.3 mph 20.6 mph 90% 0 in 0 W/m2
14:26 47.5 °F 44.8 °F 30.1 in SW 9.2 mph 20.6 mph 90% 0 in 0 W/m2
14:32 47.5 °F 44.8 °F 30.1 in SW 9.8 mph 19.7 mph 90% 0 in 0 W/m2
14:36 47.5 °F 44.8 °F 30.1 in WSW 9.8 mph 19.7 mph 90% 0 in 0 W/m2
14:40 47.5 °F 44.8 °F 30.1 in WSW 7.6 mph 19.7 mph 90% 0 in 0 W/m2
14:45 47.3 °F 44.4 °F 30.1 in WSW 12.1 mph 22.1 mph 90% 0 in 0 W/m2
14:50 47.3 °F 44.4 °F 30.1 in WSW 12.1 mph 22.8 mph 90% 0 in 0 W/m2
15:08 47.3 °F 44.4 °F 30.1 in WSW 9.8 mph 19.7 mph 90% 0 in 0 W/m2
15:13 47.5 °F 44.8 °F 30.1 in SW 8.3 mph 19.7 mph 90% 0 in 0 W/m2
15:19 47.7 °F 44.6 °F 30.1 in SW 13.6 mph 19.7 mph 89% 0 in 0 W/m2
15:23 48 °F 44.2 °F 30.1 in SW 13.6 mph 20.6 mph 87% 0 in 0 W/m2
15:28 48.2 °F 44.2 °F 30.1 in SW 10.7 mph 21.3 mph 86% 0 in 0 W/m2
15:33 48.6 °F 44.1 °F 30.1 in SW 9.8 mph 21.3 mph 84% 0 in 1 W/m2
15:39 48.7 °F 43.9 °F 30.1 in SW 10.7 mph 20.6 mph 83% 0 in 1 W/m2
15:44 48.9 °F 44.2 °F 30.1 in SW 10.7 mph 18.3 mph 84% 0 in 3 W/m2
15:48 48.7 °F 44.4 °F 30.1 in SW 10.7 mph 20.6 mph 85% 0 in 7 W/m2
16:10 48.9 °F 44.6 °F 30.1 in WSW 10.7 mph 15.9 mph 85% 0 in 19 W/m2
16:15 48.9 °F 44.6 °F 30.2 in SW 10.7 mph 15.9 mph 85% 0 in 25 W/m2
16:20 48.9 °F 44.6 °F 30.2 in SW 12.1 mph 18.3 mph 85% 0 in 33 W/m2
16:25 48.9 °F 44.6 °F 30.2 in SW 8.3 mph 19.7 mph 85% 0 in 31 W/m2
16:30 48.9 °F 44.6 °F 30.2 in SW 9.2 mph 19.7 mph 85% 0 in 38 W/m2
16:35 49.1 °F 44.8 °F 30.2 in SW 9.8 mph 18.3 mph 85% 0 in 30 W/m2
16:40 48.9 °F 44.2 °F 30.2 in SW 8.3 mph 15.2 mph 84% 0 in 32 W/m2
16:45 48.9 °F 44.2 °F 30.2 in SW 8.3 mph 15.9 mph 84% 0 in 89 W/m2
16:50 48.9 °F 44.6 °F 30.2 in WSW 9.2 mph 15.9 mph 85% 0 in 57 W/m2
16:55 49.1 °F 44.4 °F 30.2 in WSW 9.8 mph 16.8 mph 84% 0 in 61 W/m2
17:00 49.3 °F 44.8 °F 30.2 in WSW 9.8 mph 20.6 mph 84% 0 in 131 W/m2
17:05 49.6 °F 45.3 °F 30.2 in WSW 9.2 mph 20.6 mph 85% 0 in 55 W/m2
17:10 49.5 °F 45.1 °F 30.2 in WSW 13.6 mph 18.3 mph 85% 0 in 41 W/m2
17:15 48.7 °F 44.1 °F 30.2 in WSW 7.6 mph 18.3 mph 84% 0 in 45 W/m2
17:20 48.4 °F 43.9 °F 30.2 in West 2.2 mph 18.3 mph 84% 0 in 57 W/m2
17:25 48.2 °F 43.9 °F 30.2 in West 9.2 mph 13 mph 85% 0 in 53 W/m2
17:30 48.4 °F 44.1 °F 30.2 in WSW 8.3 mph 14.5 mph 85% 0 in 56 W/m2
17:35 48.4 °F 44.1 °F 30.2 in WSW 3.8 mph 14.5 mph 85% 0 in 40 W/m2
17:40 48.4 °F 43.9 °F 30.2 in West 5.4 mph 14.5 mph 84% 0 in 91 W/m2
17:45 48.6 °F 44.1 °F 30.2 in West 7.6 mph 18.3 mph 84% 0 in 93 W/m2
17:50 48.6 °F 43.3 °F 30.2 in West 10.7 mph 20.6 mph 82% 0 in 99 W/m2
17:55 48.7 °F 43.5 °F 30.2 in West 5.4 mph 20.6 mph 82% 0 in 89 W/m2
18:00 48.7 °F 43.2 °F 30.2 in WNW 7.6 mph 16.8 mph 81% 0 in 105 W/m2
18:05 49.6 °F 44.4 °F 30.2 in WSW 9.8 mph 16.8 mph 82% 0 in 113 W/m2
18:10 49.6 °F 44.1 °F 30.2 in WSW 6.9 mph 13.6 mph 81% 0 in 130 W/m2
18:15 49.8 °F 43.9 °F 30.2 in WSW 5.4 mph 13.6 mph 80% 0 in 110 W/m2
18:20 49.6 °F 43.7 °F 30.2 in WSW 4.5 mph 12.1 mph 80% 0 in 87 W/m2
18:25 49.3 °F 43.7 °F 30.2 in WSW 3.8 mph 12.1 mph 81% 0 in 101 W/m2
18:30 49.1 °F 43.9 °F 30.2 in WSW 3.8 mph 12.1 mph 82% 0 in 96 W/m2
18:35 50.5 °F 45 °F 30.2 in WSW 9.8 mph 13.6 mph 81% 0 in 164 W/m2
18:40 50.9 °F 44.2 °F 30.2 in SW 12.1 mph 21.3 mph 78% 0 in 109 W/m2
18:45 50.4 °F 43.9 °F 30.2 in SW 15.2 mph 21.3 mph 78% 0 in 114 W/m2
18:50 50 °F 43.3 °F 30.2 in West 9.8 mph 21.3 mph 78% 0 in 103 W/m2
18:55 49.8 °F 43.5 °F 30.2 in West 6 mph 21.3 mph 79% 0 in 118 W/m2
19:00 50.4 °F 44.1 °F 30.2 in WSW 14.5 mph 19 mph 79% 0 in 180 W/m2
19:05 51.3 °F 44.2 °F 30.2 in SW 11.4 mph 17.4 mph 77% 0 in 173 W/m2
19:10 51.4 °F 44.4 °F 30.2 in WSW 11.4 mph 19 mph 77% 0 in 196 W/m2
19:15 51.3 °F 44.2 °F 30.2 in SW 15.2 mph 19.7 mph 77% 0 in 136 W/m2
19:20 50.7 °F 43.9 °F 30.2 in SW 13.6 mph 19.7 mph 77% 0 in 101 W/m2
19:25 50.2 °F 43.3 °F 30.2 in SW 6.9 mph 18.3 mph 77% 0 in 85 W/m2
19:30 50.2 °F 43.5 °F 30.2 in SW 8.3 mph 16.8 mph 78% 0 in 105 W/m2
19:35 50.2 °F 43.9 °F 30.2 in SW 10.7 mph 18.3 mph 79% 0 in 164 W/m2
19:40 50.5 °F 43.5 °F 30.2 in SW 12.1 mph 18.3 mph 77% 0 in 145 W/m2
19:45 50.5 °F 43.5 °F 30.2 in WSW 8.3 mph 17.4 mph 77% 0 in 122 W/m2
19:50 50.5 °F 43.5 °F 30.2 in SW 11.4 mph 17.4 mph 77% 0 in 116 W/m2
19:55 50.4 °F 43.2 °F 30.2 in SW 6.9 mph 15.2 mph 76% 0 in 119 W/m2
20:00 50.5 °F 43.5 °F 30.2 in SW 10.7 mph 15.9 mph 77% 0 in 159 W/m2
20:05 50.9 °F 43.5 °F 30.2 in SW 9.8 mph 15.9 mph 76% 0 in 158 W/m2
20:10 50.9 °F 43.5 °F 30.2 in SW 13 mph 15.9 mph 76% 0 in 123 W/m2
20:15 50.7 °F 43.2 °F 30.2 in SW 13 mph 16.8 mph 75% 0 in 137 W/m2
20:20 50.9 °F 43.3 °F 30.2 in WSW 9.2 mph 16.8 mph 75% 0 in 145 W/m2
20:25 51.1 °F 43.3 °F 30.2 in WSW 13 mph 16.8 mph 75% 0 in 165 W/m2
20:30 51.4 °F 43.9 °F 30.2 in WSW 9.2 mph 18.3 mph 75% 0 in 178 W/m2
20:50 52.5 °F 44.4 °F 30.2 in SW 9.8 mph 15.9 mph 74% 0 in 184 W/m2
20:55 52.5 °F 44.1 °F 30.2 in SW 7.6 mph 15.2 mph 73% 0 in 183 W/m2
21:00 52.3 °F 44.1 °F 30.2 in WSW 9.8 mph 14.5 mph 73% 0 in 159 W/m2
21:05 52 °F 43.5 °F 30.2 in SW 9.2 mph 14.5 mph 73% 0 in 170 W/m2
21:10 52 °F 43.5 °F 30.2 in SW 11.4 mph 13.6 mph 73% 0 in 179 W/m2
21:15 51.6 °F 44.1 °F 30.2 in WSW 7.6 mph 14.5 mph 75% 0 in 169 W/m2
21:20 51.6 °F 43.5 °F 30.2 in WSW 9.8 mph 14.5 mph 74% 0 in 148 W/m2
21:25 51.6 °F 43.5 °F 30.2 in West 6 mph 13 mph 74% 0 in 148 W/m2
21:30 51.6 °F 43.5 °F 30.2 in WSW 6.9 mph 13 mph 74% 0 in 152 W/m2
21:35 51.6 °F 43.5 °F 30.2 in SW 9.8 mph 14.5 mph 74% 0 in 133 W/m2
21:40 52 °F 43.5 °F 30.2 in SW 9.8 mph 14.5 mph 73% 0 in 88 W/m2
21:45 52.2 °F 43.3 °F 30.2 in WSW 10.7 mph 14.5 mph 72% 0 in 115 W/m2
21:50 52.3 °F 43.5 °F 30.2 in WSW 10.7 mph 13.6 mph 72% 0 in 95 W/m2
21:55 53.1 °F 44.2 °F 30.2 in SW 6 mph 13.6 mph 72% 0 in 116 W/m2
22:00 52.5 °F 43 °F 30.2 in SW 6.9 mph 13 mph 70% 0 in 109 W/m2
22:05 52 °F 43.2 °F 30.2 in SW 7.6 mph 13 mph 72% 0 in 116 W/m2
22:10 52.5 °F 43.9 °F 30.2 in SW 7.6 mph 13 mph 72% 0 in 124 W/m2
22:15 53.4 °F 43.9 °F 30.2 in WSW 5.4 mph 13.6 mph 70% 0 in 109 W/m2
22:20 53.8 °F 43.2 °F 30.2 in West 8.3 mph 13.6 mph 67% 0 in 240 W/m2
22:25 54.1 °F 43 °F 30.2 in West 5.4 mph 13.6 mph 66% 0 in 174 W/m2
22:30 54 °F 43.3 °F 30.2 in WSW 5.4 mph 13 mph 67% 0 in 206 W/m2
22:35 54 °F 43 °F 30.2 in WSW 5.4 mph 9.8 mph 66% 0 in 51 W/m2
22:40 52.3 °F 42.1 °F 30.2 in WSW 4.5 mph 12.1 mph 68% 0 in 81 W/m2
22:45 52.5 °F 43.3 °F 30.2 in West 3.8 mph 12.1 mph 71% 0 in 202 W/m2
22:50 54.3 °F 44.4 °F 30.2 in WSW 5.4 mph 12.1 mph 69% 0 in 191 W/m2
22:55 54.7 °F 43.9 °F 30.2 in WSW 2.2 mph 8.3 mph 67% 0 in 183 W/m2
23:00 54.7 °F 43.9 °F 30.2 in West 6 mph 8.3 mph 67% 0 in 177 W/m2
23:05 54.1 °F 42.6 °F 30.2 in WSW 4.5 mph 12.1 mph 65% 0 in 163 W/m2
23:10 54.1 °F 43 °F 30.2 in WSW 5.4 mph 12.1 mph 66% 0 in 153 W/m2
23:15 54.5 °F 43.3 °F 30.2 in SW 7.6 mph 9.8 mph 66% 0 in 145 W/m2
23:20 54.3 °F 42.8 °F 30.2 in SW 5.4 mph 10.7 mph 65% 0 in 138 W/m2
23:25 54.3 °F 42.8 °F 30.2 in SW 6 mph 10.7 mph 65% 0 in 131 W/m2
23:30 54.3 °F 43.2 °F 30.2 in SW 4.5 mph 10.7 mph 66% 0 in 122 W/m2
23:35 54.9 °F 43.7 °F 30.2 in SW 5.4 mph 10.7 mph 66% 0 in 114 W/m2
23:40 54.5 °F 43 °F 30.2 in SW 6 mph 9.8 mph 65% 0 in 105 W/m2
23:45 54.1 °F 43 °F 30.2 in WSW 3.8 mph 11.4 mph 66% 0 in 93 W/m2
23:50 54.1 °F 42.6 °F 30.2 in SW 6 mph 11.4 mph 65% 0 in 81 W/m2
23:55 54.1 °F 43 °F 30.2 in SW 6 mph 10.7 mph 66% 0 in 73 W/m2
Northern Hawkes Bay. New Zealand Historic Data
Compliments of Weather Underground - 2 mb